createdAt,value
2023-04-20T00:00:29.332Z,5.40
2023-04-20T00:02:02.976Z,9.50
2023-04-20T00:03:35.470Z,6.20
2023-04-20T00:05:08.974Z,7.90
2023-04-20T00:06:42.287Z,6.10
2023-04-20T00:08:13.977Z,8.40
2023-04-20T00:09:45.728Z,5.30
2023-04-20T00:11:17.398Z,7.00
2023-04-20T00:12:49.244Z,9.20
2023-04-20T00:14:21.031Z,6.30
2023-04-20T00:15:52.710Z,8.40
2023-04-20T00:17:24.496Z,5.70
2023-04-20T00:18:56.235Z,5.20
2023-04-20T00:20:28.756Z,8.00
2023-04-20T00:22:00.949Z,8.30
2023-04-20T00:23:32.741Z,6.90
2023-04-20T00:25:04.971Z,5.90
2023-04-20T00:26:36.730Z,6.90
2023-04-20T00:28:08.523Z,6.00
2023-04-20T00:29:40.274Z,6.80
2023-04-20T00:31:12.001Z,6.70
2023-04-20T00:32:43.782Z,8.40
2023-04-20T00:34:16.265Z,8.20
2023-04-20T00:35:48.046Z,8.70
2023-04-20T00:37:20.841Z,6.90
2023-04-20T00:38:52.667Z,5.60
2023-04-20T00:40:25.968Z,7.10
2023-04-20T00:42:06.529Z,10.10
2023-04-20T00:43:38.421Z,6.90
2023-04-20T00:45:11.743Z,7.50
2023-04-20T00:46:43.526Z,8.10
2023-04-20T00:48:15.433Z,5.90
2023-04-20T00:49:47.843Z,6.70
2023-04-20T00:51:21.884Z,7.10
2023-04-20T00:52:53.636Z,5.10
2023-04-20T00:54:28.284Z,5.40
2023-04-20T00:56:00.414Z,8.00
2023-04-20T00:57:32.765Z,4.60
2023-04-20T00:59:07.812Z,6.00
2023-04-20T01:00:40.847Z,6.80
2023-04-20T01:02:13.182Z,7.20
2023-04-20T01:03:47.168Z,5.50
2023-04-20T01:05:20.036Z,8.40
2023-04-20T01:06:51.839Z,5.10
2023-04-20T01:08:27.563Z,4.10
2023-04-20T01:10:00.261Z,5.30
2023-04-20T01:11:32.227Z,6.80
2023-04-20T01:13:03.968Z,8.00
2023-04-20T01:14:37.942Z,6.80
2023-04-20T01:16:11.669Z,6.80
2023-04-20T01:17:43.558Z,6.10
2023-04-20T01:19:15.721Z,6.40
2023-04-20T01:20:47.990Z,7.50
2023-04-20T01:22:21.232Z,5.00
2023-04-20T01:23:53.026Z,7.90
2023-04-20T01:25:25.519Z,6.10
2023-04-20T01:26:58.488Z,6.00
2023-04-20T01:28:30.231Z,5.80
2023-04-20T01:30:02.016Z,6.40
2023-04-20T01:31:34.442Z,5.30
2023-04-20T01:33:06.303Z,6.60
2023-04-20T01:34:38.773Z,7.50
2023-04-20T01:36:10.733Z,6.00
2023-04-20T01:37:42.521Z,9.50
2023-04-20T01:39:14.281Z,6.60
2023-04-20T01:40:46.095Z,5.30
2023-04-20T01:42:17.904Z,6.70
2023-04-20T01:43:49.609Z,6.00
2023-04-20T01:45:21.397Z,7.40
2023-04-20T01:46:53.207Z,12.30
2023-04-20T01:48:24.981Z,7.20
2023-04-20T01:49:56.645Z,8.70
2023-04-20T01:51:30.489Z,8.00
2023-04-20T01:53:02.289Z,7.30
2023-04-20T01:54:33.976Z,5.60
2023-04-20T01:56:06.846Z,7.30
2023-04-20T01:57:38.561Z,7.30
2023-04-20T01:59:10.301Z,8.10
2023-04-20T02:00:42.082Z,8.70
2023-04-20T02:02:13.979Z,7.60
2023-04-20T02:03:46.067Z,7.80
2023-04-20T02:05:18.261Z,7.30
2023-04-20T02:06:49.979Z,9.90
2023-04-20T02:08:22.750Z,8.30
2023-04-20T02:09:54.464Z,7.50
2023-04-20T02:11:26.263Z,7.10
2023-04-20T02:12:58.319Z,5.70
2023-04-20T02:14:30.117Z,5.60
2023-04-20T02:16:03.250Z,5.90
2023-04-20T02:17:36.936Z,6.90
2023-04-20T02:19:09.953Z,5.30
2023-04-20T02:20:43.036Z,6.60
2023-04-20T02:22:14.741Z,5.60
2023-04-20T02:23:46.582Z,7.90
2023-04-20T02:25:18.359Z,5.70
2023-04-20T02:26:50.391Z,8.50
2023-04-20T02:28:22.131Z,7.30
2023-04-20T02:29:54.278Z,5.80
2023-04-20T02:31:26.172Z,6.10
2023-04-20T02:32:58.006Z,8.80
2023-04-20T02:34:29.815Z,7.60
2023-04-20T02:36:01.952Z,7.00
2023-04-20T02:37:33.693Z,8.40
2023-04-20T02:39:05.911Z,7.20
2023-04-20T02:40:39.221Z,8.40
2023-04-20T02:42:11.623Z,7.70
2023-04-20T02:43:43.390Z,8.00
2023-04-20T02:45:15.931Z,7.00
2023-04-20T02:46:49.101Z,7.50
2023-04-20T02:48:22.245Z,7.40
2023-04-20T02:49:54.219Z,6.80
2023-04-20T02:51:25.887Z,6.40
2023-04-20T02:52:57.770Z,6.90
2023-04-20T02:54:29.858Z,6.60
2023-04-20T02:56:01.886Z,6.00
2023-04-20T02:57:46.164Z,6.80
2023-04-20T02:59:18.102Z,7.80
2023-04-20T03:01:03.971Z,9.50
2023-04-20T03:02:37.532Z,8.40
2023-04-20T03:04:09.609Z,8.10
2023-04-20T03:05:44.074Z,6.20
2023-04-20T03:07:16.841Z,7.00
2023-04-20T03:08:48.828Z,6.70
2023-04-20T03:10:49.845Z,9.80
2023-04-20T03:12:24.580Z,11.80
2023-04-20T03:14:08.264Z,7.50
2023-04-20T03:15:40.690Z,7.60
2023-04-20T03:17:20.541Z,8.10
2023-04-20T03:18:52.290Z,8.70
2023-04-20T03:20:24.197Z,7.50
2023-04-20T03:21:56.372Z,6.80
2023-04-20T03:23:28.110Z,8.30
2023-04-20T03:25:00.307Z,7.40
2023-04-20T03:26:58.148Z,7.10
2023-04-20T03:28:46.596Z,7.00
2023-04-20T03:30:22.355Z,6.90
2023-04-20T03:31:58.594Z,5.60
2023-04-20T03:33:30.487Z,7.60
2023-04-20T03:35:02.402Z,8.10
2023-04-20T03:36:34.370Z,9.00
2023-04-20T03:38:06.517Z,8.70
2023-04-20T03:39:38.301Z,7.60
2023-04-20T03:41:10.218Z,8.20
2023-04-20T03:42:41.892Z,8.90
2023-04-20T03:44:15.130Z,5.80
2023-04-20T03:45:46.970Z,8.40
2023-04-20T03:47:21.931Z,7.50
2023-04-20T03:48:53.958Z,8.00
2023-04-20T03:50:25.935Z,5.20
2023-04-20T03:51:57.691Z,8.50
2023-04-20T03:53:30.024Z,8.60
2023-04-20T03:55:02.056Z,7.20
2023-04-20T03:56:33.940Z,9.90
2023-04-20T03:58:07.005Z,9.00
2023-04-20T03:59:47.750Z,7.00
2023-04-20T04:01:21.852Z,6.10
2023-04-20T04:02:54.096Z,7.20
2023-04-20T04:04:30.146Z,6.90
2023-04-20T04:06:03.861Z,9.30
2023-04-20T04:07:36.400Z,6.00
2023-04-20T04:09:08.954Z,9.00
2023-04-20T04:10:40.668Z,9.40
2023-04-20T04:12:12.659Z,9.50
2023-04-20T04:13:44.433Z,8.30
2023-04-20T04:15:19.089Z,7.50
2023-04-20T04:16:56.255Z,8.40
2023-04-20T04:18:32.296Z,9.80
2023-04-20T04:20:09.573Z,8.90
2023-04-20T04:21:41.880Z,8.10
2023-04-20T04:23:13.640Z,7.50
2023-04-20T04:24:54.449Z,8.30
2023-04-20T04:26:26.678Z,11.00
2023-04-20T04:27:58.749Z,5.90
2023-04-20T04:29:30.947Z,7.50
2023-04-20T04:31:07.754Z,8.90
2023-04-20T04:32:39.683Z,7.60
2023-04-20T04:34:12.211Z,7.80
2023-04-20T04:35:48.549Z,6.10
2023-04-20T04:37:20.399Z,7.20
2023-04-20T04:38:57.835Z,6.60
2023-04-20T04:40:29.870Z,7.40
2023-04-20T04:42:04.850Z,8.90
2023-04-20T04:43:45.693Z,10.80
2023-04-20T04:45:25.474Z,11.90
2023-04-20T04:46:58.718Z,9.90
2023-04-20T04:48:30.918Z,7.70
2023-04-20T04:50:07.185Z,7.40
2023-04-20T04:51:38.921Z,7.10
2023-04-20T04:53:10.674Z,8.00
2023-04-20T04:54:42.351Z,7.40
2023-04-20T04:56:14.250Z,8.60
2023-04-20T04:57:45.934Z,7.20
2023-04-20T04:59:18.027Z,9.50
2023-04-20T05:00:50.256Z,8.10
2023-04-20T05:02:22.301Z,8.10
2023-04-20T05:03:54.409Z,9.70
2023-04-20T05:05:26.464Z,7.90
2023-04-20T05:06:58.285Z,8.70
2023-04-20T05:08:30.102Z,7.70
2023-04-20T05:10:01.932Z,9.00
2023-04-20T05:11:33.740Z,8.30
2023-04-20T05:13:05.519Z,8.50
2023-04-20T05:14:37.312Z,9.60
2023-04-20T05:16:09.100Z,8.80
2023-04-20T05:17:40.896Z,7.20
2023-04-20T05:19:12.680Z,10.60
2023-04-20T05:20:44.386Z,9.00
2023-04-20T05:22:17.188Z,7.80
2023-04-20T05:23:48.862Z,7.10
2023-04-20T05:25:20.702Z,9.60
2023-04-20T05:26:52.383Z,9.90
2023-04-20T05:28:24.091Z,7.40
2023-04-20T05:29:57.316Z,7.50
2023-04-20T05:31:33.249Z,7.30
2023-04-20T05:33:05.362Z,8.30
2023-04-20T05:34:37.092Z,11.00
2023-04-20T05:36:10.389Z,7.70
2023-04-20T05:37:42.162Z,9.10
2023-04-20T05:39:13.863Z,6.80
2023-04-20T05:40:46.256Z,8.70
2023-04-20T05:42:18.102Z,11.30
2023-04-20T05:43:50.835Z,7.50
2023-04-20T05:45:22.643Z,7.60
2023-04-20T05:46:54.386Z,9.10
2023-04-20T05:48:29.821Z,10.00
2023-04-20T05:50:02.351Z,8.90
2023-04-20T05:51:34.108Z,8.60
2023-04-20T05:53:06.137Z,8.60
2023-04-20T05:54:37.872Z,7.80
2023-04-20T05:56:09.582Z,9.70
2023-04-20T05:57:42.901Z,12.80
2023-04-20T05:59:16.699Z,8.50
2023-04-20T06:00:48.556Z,9.70
2023-04-20T06:02:20.659Z,8.90
2023-04-20T06:03:52.702Z,8.10
2023-04-20T06:05:24.775Z,8.80
2023-04-20T06:06:56.480Z,8.70
2023-04-20T06:08:28.184Z,9.80
2023-04-20T06:10:01.805Z,9.00
2023-04-20T06:11:33.907Z,10.60
2023-04-20T06:13:05.905Z,9.50
2023-04-20T06:14:37.582Z,7.80
2023-04-20T06:16:10.892Z,10.00
2023-04-20T06:17:42.885Z,8.90
2023-04-20T06:19:14.838Z,11.30
2023-04-20T06:20:46.986Z,11.40
2023-04-20T06:22:19.937Z,8.50
2023-04-20T06:23:51.606Z,8.30
2023-04-20T06:25:23.505Z,7.60
2023-04-20T06:26:55.234Z,10.00
2023-04-20T06:28:26.906Z,10.00
2023-04-20T06:29:58.560Z,10.00
2023-04-20T06:31:30.389Z,12.40
2023-04-20T06:33:03.312Z,11.30
2023-04-20T06:34:35.024Z,10.00
2023-04-20T06:36:08.449Z,9.60
2023-04-20T06:37:40.741Z,10.70
2023-04-20T06:39:12.545Z,9.30
2023-04-20T06:40:44.276Z,10.60
2023-04-20T06:42:16.138Z,11.10
2023-04-20T06:43:47.920Z,7.90
2023-04-20T06:45:19.931Z,10.00
2023-04-20T06:46:51.722Z,8.60
2023-04-20T06:48:32.395Z,8.10
2023-04-20T06:50:09.510Z,10.20
2023-04-20T06:51:41.771Z,10.10
2023-04-20T06:53:13.444Z,8.30
2023-04-20T06:54:45.248Z,8.90
2023-04-20T06:56:16.920Z,11.00
2023-04-20T06:57:48.640Z,9.00
2023-04-20T06:59:20.726Z,11.50
2023-04-20T07:00:52.701Z,9.80
2023-04-20T07:02:25.023Z,9.10
2023-04-20T07:03:57.125Z,8.90
2023-04-20T07:05:29.001Z,10.30
2023-04-20T07:07:00.830Z,9.10
2023-04-20T07:08:33.529Z,10.30
2023-04-20T07:10:08.394Z,9.20
2023-04-20T07:11:40.082Z,9.50
2023-04-20T07:13:12.012Z,9.80
2023-04-20T07:14:43.723Z,9.70
2023-04-20T07:16:16.646Z,8.00
2023-04-20T07:17:48.573Z,9.80
2023-04-20T07:19:20.571Z,8.80
2023-04-20T07:20:52.568Z,9.10
2023-04-20T07:22:24.458Z,9.90
2023-04-20T07:23:58.486Z,8.60
2023-04-20T07:25:32.821Z,8.80
2023-04-20T07:27:05.597Z,8.80
2023-04-20T07:28:37.465Z,9.60
2023-04-20T07:30:10.717Z,9.50
2023-04-20T07:31:42.495Z,10.80
2023-04-20T07:33:14.483Z,8.70
2023-04-20T07:34:46.352Z,8.50
2023-04-20T07:36:18.160Z,9.70
2023-04-20T07:37:49.873Z,10.90
2023-04-20T07:39:21.668Z,8.10
2023-04-20T07:40:53.333Z,10.20
2023-04-20T07:42:25.363Z,8.40
2023-04-20T07:43:56.983Z,9.80
2023-04-20T07:45:28.712Z,9.40
2023-04-20T07:47:00.941Z,9.60
2023-04-20T07:48:37.594Z,13.30
2023-04-20T07:50:09.712Z,9.70
2023-04-20T07:51:42.617Z,9.20
2023-04-20T07:53:14.395Z,7.70
2023-04-20T07:54:46.833Z,8.60
2023-04-20T07:56:18.553Z,7.50
2023-04-20T07:57:51.221Z,7.80
2023-04-20T07:59:22.942Z,8.10
2023-04-20T08:00:54.638Z,9.80
2023-04-20T08:02:26.412Z,8.10
2023-04-20T08:03:58.562Z,9.50
2023-04-20T08:05:30.769Z,9.70
2023-04-20T08:07:02.591Z,11.90
2023-04-20T08:08:34.278Z,8.70
2023-04-20T08:10:08.110Z,8.80
2023-04-20T08:11:41.053Z,9.80
2023-04-20T08:13:12.793Z,9.50
2023-04-20T08:14:44.604Z,8.80
2023-04-20T08:16:16.557Z,9.80
2023-04-20T08:17:48.382Z,9.40
2023-04-20T08:19:20.299Z,10.90
2023-04-20T08:20:52.179Z,8.60
2023-04-20T08:22:29.809Z,10.70
2023-04-20T08:24:01.491Z,9.60
2023-04-20T08:25:33.203Z,11.30
2023-04-20T08:27:04.919Z,10.20
2023-04-20T08:28:36.654Z,10.20
2023-04-20T08:30:09.259Z,11.00
2023-04-20T08:31:41.162Z,10.20
2023-04-20T08:33:13.495Z,11.50
2023-04-20T08:34:45.345Z,11.10
2023-04-20T08:36:17.547Z,9.80
2023-04-20T08:37:49.224Z,9.20
2023-04-20T08:39:24.034Z,13.10
2023-04-20T08:40:55.966Z,10.70
2023-04-20T08:42:27.701Z,12.00
2023-04-20T08:43:59.768Z,11.10
2023-04-20T08:45:31.512Z,10.00
2023-04-20T08:47:03.957Z,12.20
2023-04-20T08:48:38.156Z,10.40
2023-04-20T08:50:11.113Z,9.40
2023-04-20T08:51:45.333Z,11.30
2023-04-20T08:53:17.373Z,11.90
2023-04-20T08:54:55.913Z,13.00
2023-04-20T08:56:37.916Z,9.40
2023-04-20T08:58:09.869Z,11.00
2023-04-20T08:59:41.627Z,11.10
2023-04-20T09:01:17.672Z,11.30
2023-04-20T09:02:59.194Z,13.00
2023-04-20T09:04:31.286Z,11.40
2023-04-20T09:06:05.425Z,11.70
2023-04-20T09:07:37.109Z,12.60
2023-04-20T09:09:11.381Z,12.90
2023-04-20T09:10:44.940Z,11.30
2023-04-20T09:12:16.678Z,13.30
2023-04-20T09:14:12.459Z,12.80
2023-04-20T09:15:44.539Z,11.40
2023-04-20T09:17:18.114Z,15.60
2023-04-20T09:18:54.769Z,14.30
2023-04-20T09:20:34.827Z,14.60
2023-04-20T09:22:07.027Z,11.60
2023-04-20T09:23:38.742Z,10.40
2023-04-20T09:25:19.008Z,13.00
2023-04-20T09:26:50.893Z,10.90
2023-04-20T09:28:22.700Z,10.20
2023-04-20T09:30:04.013Z,7.90
2023-04-20T09:31:36.747Z,9.80
2023-04-20T09:33:11.997Z,10.20
2023-04-20T09:34:45.074Z,9.40
2023-04-20T09:36:17.712Z,9.30
2023-04-20T09:37:49.593Z,8.20
2023-04-20T09:39:23.985Z,8.00
2023-04-20T09:41:00.197Z,8.80
2023-04-20T09:42:37.178Z,7.80
2023-04-20T09:44:11.025Z,7.00
2023-04-20T09:45:42.909Z,6.30
2023-04-20T09:47:21.560Z,7.60
2023-04-20T09:48:53.983Z,7.30
2023-04-20T09:50:34.949Z,7.30
2023-04-20T09:52:10.236Z,6.80
2023-04-20T09:53:42.770Z,6.00
2023-04-20T09:55:15.089Z,6.80
2023-04-20T09:56:48.314Z,7.30
2023-04-20T09:58:21.059Z,7.00
2023-04-20T09:59:54.602Z,6.20
2023-04-20T10:01:29.456Z,7.40
2023-04-20T10:03:01.567Z,7.20
2023-04-20T10:04:33.488Z,6.30
2023-04-20T10:06:05.439Z,7.20
2023-04-20T10:07:37.224Z,6.20
2023-04-20T10:09:09.002Z,6.40
2023-04-20T10:10:46.848Z,7.20
2023-04-20T10:12:20.255Z,7.20
2023-04-20T10:13:52.732Z,6.40
2023-04-20T10:15:36.089Z,5.00
2023-04-20T10:17:09.695Z,8.50
2023-04-20T10:18:41.660Z,6.80
2023-04-20T10:20:27.098Z,7.60
2023-04-20T10:21:58.825Z,7.10
2023-04-20T10:23:30.600Z,7.60
2023-04-20T10:25:26.765Z,8.40
2023-04-20T10:26:59.205Z,7.20
2023-04-20T10:28:41.799Z,9.20
2023-04-20T10:30:14.611Z,7.80
2023-04-20T10:31:46.295Z,6.50
2023-04-20T10:33:18.691Z,8.10
2023-04-20T10:35:03.132Z,6.90
2023-04-20T10:36:37.696Z,7.60
2023-04-20T10:38:11.410Z,7.00
2023-04-20T10:39:48.195Z,6.90
2023-04-20T10:41:21.020Z,6.90
2023-04-20T10:42:52.820Z,7.90
2023-04-20T10:44:25.583Z,7.50
2023-04-20T10:45:57.307Z,6.50
2023-04-20T10:47:34.861Z,6.90
2023-04-20T10:49:08.785Z,7.20
2023-04-20T10:50:40.668Z,8.00
2023-04-20T10:52:12.492Z,7.30
2023-04-20T10:53:44.878Z,7.30
2023-04-20T10:55:25.577Z,8.40
2023-04-20T10:56:57.266Z,7.30
2023-04-20T10:58:28.994Z,7.30
2023-04-20T11:00:00.801Z,7.20
2023-04-20T11:01:32.838Z,6.80
2023-04-20T11:03:04.682Z,6.90
2023-04-20T11:04:37.264Z,8.40
2023-04-20T11:06:09.025Z,7.80
2023-04-20T11:08:00.048Z,5.90
2023-04-20T11:09:33.439Z,5.50
2023-04-20T11:11:05.962Z,5.30
2023-04-20T11:12:40.639Z,6.30
2023-04-20T11:14:13.386Z,7.90
2023-04-20T11:15:45.144Z,7.30
2023-04-20T11:17:17.129Z,6.00
2023-04-20T11:18:54.927Z,5.70
2023-04-20T11:20:27.044Z,6.50
2023-04-20T11:21:59.840Z,5.50
2023-04-20T11:23:41.788Z,5.20
2023-04-20T11:25:13.602Z,4.70
2023-04-20T11:26:45.759Z,6.60
2023-04-20T11:28:17.448Z,6.10
2023-04-20T11:29:58.403Z,5.70
2023-04-20T11:31:30.938Z,5.90
2023-04-20T11:33:02.861Z,5.40
2023-04-20T11:34:37.367Z,5.50
2023-04-20T11:36:19.916Z,5.80
2023-04-20T11:37:53.656Z,5.60
2023-04-20T11:39:27.304Z,5.90
2023-04-20T11:41:04.496Z,6.00
2023-04-20T11:42:37.106Z,7.70
2023-04-20T11:44:08.836Z,5.40
2023-04-20T11:45:41.548Z,6.40
2023-04-20T11:47:13.464Z,6.40
2023-04-20T11:48:47.493Z,6.60
2023-04-20T11:50:19.203Z,6.70
2023-04-20T11:51:51.331Z,8.30
2023-04-20T11:53:23.063Z,6.40
2023-04-20T11:54:54.772Z,7.70
2023-04-20T11:56:28.667Z,7.10
2023-04-20T11:58:00.418Z,7.30
2023-04-20T11:59:32.112Z,7.60
2023-04-20T12:01:05.361Z,13.00
2023-04-20T12:02:41.170Z,6.10
2023-04-20T12:04:13.080Z,6.10
2023-04-20T12:05:45.054Z,7.30
2023-04-20T12:07:16.921Z,6.60
2023-04-20T12:08:48.725Z,7.10
2023-04-20T12:10:20.663Z,6.70
2023-04-20T12:11:52.870Z,7.00
2023-04-20T12:13:24.628Z,7.10
2023-04-20T12:14:57.909Z,7.00
2023-04-20T12:16:29.790Z,8.00
2023-04-20T12:18:01.590Z,8.20
2023-04-20T12:19:33.428Z,10.70
2023-04-20T12:21:05.826Z,8.30
2023-04-20T12:22:38.071Z,9.00
2023-04-20T12:24:09.765Z,8.40
2023-04-20T12:25:43.075Z,7.20
2023-04-20T12:27:14.743Z,8.40
2023-04-20T12:28:46.840Z,8.30
2023-04-20T12:30:18.705Z,9.10
2023-04-20T12:31:50.863Z,8.60
2023-04-20T12:33:22.775Z,7.80
2023-04-20T12:34:54.449Z,7.70
2023-04-20T12:36:27.494Z,7.90
2023-04-20T12:37:59.212Z,9.20
2023-04-20T12:39:30.858Z,8.10
2023-04-20T12:41:04.299Z,8.70
2023-04-20T12:42:35.985Z,8.50
2023-04-20T12:44:09.321Z,8.50
2023-04-20T12:45:42.576Z,7.50
2023-04-20T12:47:14.255Z,6.90
2023-04-20T12:48:46.589Z,9.50
2023-04-20T12:50:18.822Z,8.40
2023-04-20T12:51:50.553Z,8.20
2023-04-20T12:53:22.448Z,7.80
2023-04-20T12:54:54.091Z,8.40
2023-04-20T12:56:31.300Z,7.20
2023-04-20T12:58:03.041Z,7.50
2023-04-20T12:59:34.763Z,8.60
2023-04-20T13:01:06.576Z,9.20
2023-04-20T13:02:39.632Z,8.20
2023-04-20T13:04:11.766Z,8.70
2023-04-20T13:05:44.549Z,6.90
2023-04-20T13:07:16.268Z,7.70
2023-04-20T13:08:48.111Z,9.00
2023-04-20T13:10:19.834Z,8.20
2023-04-20T13:11:51.573Z,8.20
2023-04-20T13:13:23.225Z,8.60
2023-04-20T13:14:55.062Z,9.80
2023-04-20T13:16:26.902Z,7.00
2023-04-20T13:17:58.674Z,9.70
2023-04-20T13:19:31.360Z,11.00
2023-04-20T13:21:03.233Z,8.40
2023-04-20T13:22:37.267Z,9.30
2023-04-20T13:24:15.730Z,9.50
2023-04-20T13:25:47.627Z,8.20
2023-04-20T13:27:19.466Z,9.70
2023-04-20T13:28:51.187Z,10.50
2023-04-20T13:30:24.556Z,8.90
2023-04-20T13:31:56.641Z,8.70
2023-04-20T13:33:28.337Z,8.20
2023-04-20T13:35:00.043Z,9.80
2023-04-20T13:36:32.712Z,9.60
2023-04-20T13:38:05.278Z,11.40
2023-04-20T13:39:36.973Z,9.70
2023-04-20T13:41:08.672Z,11.40
2023-04-20T13:42:40.474Z,9.90
2023-04-20T13:44:16.144Z,9.70
2023-04-20T13:45:48.150Z,9.60
2023-04-20T13:47:20.046Z,9.40
2023-04-20T13:48:51.836Z,9.90
2023-04-20T13:50:23.716Z,11.00
2023-04-20T13:51:55.465Z,9.60
2023-04-20T13:53:27.482Z,9.70
2023-04-20T13:54:59.216Z,9.70
2023-04-20T13:56:31.886Z,7.80
2023-04-20T13:58:03.645Z,9.30
2023-04-20T13:59:35.478Z,11.40
2023-04-20T14:01:09.434Z,9.40
2023-04-20T14:02:41.359Z,10.60
2023-04-20T14:04:16.872Z,10.20
2023-04-20T14:05:51.032Z,10.80
2023-04-20T14:07:23.473Z,9.50
2023-04-20T14:08:55.411Z,9.20
2023-04-20T14:10:28.354Z,9.00
2023-04-20T14:12:01.484Z,8.70
2023-04-20T14:13:33.330Z,9.10
2023-04-20T14:15:05.646Z,9.00
2023-04-20T14:16:48.669Z,9.90
2023-04-20T14:18:20.751Z,8.70
2023-04-20T14:19:53.124Z,9.10
2023-04-20T14:21:24.837Z,8.40
2023-04-20T14:22:56.462Z,9.10
2023-04-20T14:24:28.187Z,9.40
2023-04-20T14:26:00.278Z,9.20
2023-04-20T14:27:32.806Z,9.90
2023-04-20T14:29:05.430Z,10.10
2023-04-20T14:30:37.128Z,8.20
2023-04-20T14:32:08.895Z,10.90
2023-04-20T14:33:41.637Z,8.00
2023-04-20T14:35:13.285Z,7.80
2023-04-20T14:36:44.994Z,7.20
2023-04-20T14:38:16.630Z,7.90
2023-04-20T14:39:48.313Z,8.90
2023-04-20T14:41:20.508Z,8.00
2023-04-20T14:42:52.269Z,9.00
2023-04-20T14:44:24.036Z,8.50
2023-04-20T14:45:56.161Z,8.80
2023-04-20T14:47:28.176Z,9.90
2023-04-20T14:48:59.905Z,8.60
2023-04-20T14:50:32.363Z,9.90
2023-04-20T14:52:04.300Z,8.90
2023-04-20T14:53:36.040Z,8.20
2023-04-20T14:55:08.162Z,8.20
2023-04-20T14:56:39.898Z,8.90
2023-04-20T14:58:11.662Z,7.90
2023-04-20T14:59:43.378Z,7.70
2023-04-20T15:01:15.627Z,7.80
2023-04-20T15:02:47.535Z,6.90
2023-04-20T15:04:19.766Z,7.40
2023-04-20T15:05:51.700Z,7.40
2023-04-20T15:07:23.542Z,8.30
2023-04-20T15:08:56.459Z,8.50
2023-04-20T15:10:28.432Z,8.40
2023-04-20T15:12:00.229Z,9.30
2023-04-20T15:13:32.034Z,8.20
2023-04-20T15:15:04.172Z,8.70
2023-04-20T15:16:36.148Z,8.10
2023-04-20T15:18:08.022Z,7.80
2023-04-20T15:19:45.976Z,9.10
2023-04-20T15:21:17.711Z,9.20
2023-04-20T15:22:49.392Z,9.10
2023-04-20T15:24:21.084Z,8.60
2023-04-20T15:25:53.020Z,10.50
2023-04-20T15:27:24.718Z,9.40
2023-04-20T15:28:57.546Z,7.90
2023-04-20T15:30:30.693Z,7.80
2023-04-20T15:32:02.609Z,8.60
2023-04-20T15:33:34.592Z,10.00
2023-04-20T15:35:06.771Z,8.80
2023-04-20T15:36:38.608Z,8.80
2023-04-20T15:38:10.500Z,8.20
2023-04-20T15:39:42.238Z,9.30
2023-04-20T15:41:16.207Z,8.40
2023-04-20T15:42:48.113Z,7.90
2023-04-20T15:44:20.108Z,7.90
2023-04-20T15:45:52.056Z,10.70
2023-04-20T15:47:24.041Z,7.50
2023-04-20T15:48:55.941Z,8.30
2023-04-20T15:50:27.760Z,8.10
2023-04-20T15:51:59.514Z,9.10
2023-04-20T15:53:32.398Z,7.20
2023-04-20T15:55:04.742Z,8.60
2023-04-20T15:56:37.186Z,8.60
2023-04-20T15:58:08.855Z,7.20
2023-04-20T15:59:40.632Z,7.20
2023-04-20T16:01:12.361Z,7.70
2023-04-20T16:02:44.240Z,8.50
2023-04-20T16:04:16.417Z,6.30
2023-04-20T16:05:48.427Z,6.10
2023-04-20T16:07:20.204Z,8.00
2023-04-20T16:08:53.980Z,6.70
2023-04-20T16:10:27.370Z,6.20
2023-04-20T16:11:59.418Z,8.00
2023-04-20T16:13:31.227Z,6.00
2023-04-20T16:15:03.944Z,8.00
2023-04-20T16:16:36.041Z,7.90
2023-04-20T16:18:07.855Z,7.20
2023-04-20T16:19:40.049Z,7.70
2023-04-20T16:21:11.790Z,7.00
2023-04-20T16:22:43.523Z,7.80
2023-04-20T16:24:15.319Z,7.90
2023-04-20T16:25:47.274Z,6.50
2023-04-20T16:27:19.001Z,6.40
2023-04-20T16:28:50.789Z,6.50
2023-04-20T16:30:22.877Z,6.10
2023-04-20T16:31:54.823Z,6.70
2023-04-20T16:33:26.810Z,6.10
2023-04-20T16:34:58.618Z,6.10
2023-04-20T16:36:30.436Z,6.70
2023-04-20T16:38:02.130Z,7.70
2023-04-20T16:39:33.825Z,6.50
2023-04-20T16:41:05.666Z,6.50
2023-04-20T16:42:37.542Z,7.10
2023-04-20T16:44:09.288Z,5.70
2023-04-20T16:45:41.448Z,6.20
2023-04-20T16:47:13.149Z,5.20
2023-04-20T16:48:44.888Z,6.30
2023-04-20T16:50:19.707Z,7.10
2023-04-20T16:51:51.819Z,6.50
2023-04-20T16:53:23.506Z,6.40
2023-04-20T16:54:55.180Z,6.80
2023-04-20T16:56:27.476Z,6.70
2023-04-20T16:58:00.291Z,6.60
2023-04-20T16:59:31.959Z,6.60
2023-04-20T17:01:04.463Z,7.00
2023-04-20T17:02:37.955Z,6.60
2023-04-20T17:04:10.013Z,6.20
2023-04-20T17:05:42.277Z,7.00
2023-04-20T17:07:14.147Z,7.20
2023-04-20T17:08:46.061Z,6.80
2023-04-20T17:10:17.927Z,6.30
2023-04-20T17:11:49.691Z,6.40
2023-04-20T17:13:21.415Z,6.10
2023-04-20T17:14:55.319Z,6.40
2023-04-20T17:16:27.082Z,7.10
2023-04-20T17:17:59.479Z,9.00
2023-04-20T17:19:31.474Z,7.80
2023-04-20T17:21:03.406Z,5.70
2023-04-20T17:22:38.254Z,6.90
2023-04-20T17:24:10.002Z,7.30
2023-04-20T17:25:43.626Z,8.60
2023-04-20T17:27:16.035Z,8.00
2023-04-20T17:28:48.013Z,5.60
2023-04-20T17:30:20.523Z,8.20
2023-04-20T17:31:52.303Z,6.70
2023-04-20T17:33:24.312Z,8.50
2023-04-20T17:34:56.075Z,9.20
2023-04-20T17:36:28.099Z,6.40
2023-04-20T17:37:59.893Z,10.60
2023-04-20T17:39:31.732Z,8.80
2023-04-20T17:41:03.883Z,10.60
2023-04-20T17:42:35.678Z,7.60
2023-04-20T17:44:07.756Z,9.10
2023-04-20T17:45:40.022Z,10.70
2023-04-20T17:47:14.826Z,10.60
2023-04-20T17:48:46.589Z,10.20
2023-04-20T17:50:18.327Z,8.00
2023-04-20T17:51:50.210Z,9.20
2023-04-20T17:53:21.938Z,7.90
2023-04-20T17:54:54.939Z,10.20
2023-04-20T17:56:27.161Z,11.80
2023-04-20T17:57:58.935Z,10.20
2023-04-20T17:59:31.235Z,9.60
2023-04-20T18:01:03.553Z,11.50
2023-04-20T18:02:35.713Z,9.10
2023-04-20T18:04:08.673Z,10.10
2023-04-20T18:05:41.739Z,10.20
2023-04-20T18:07:15.638Z,10.50
2023-04-20T18:08:47.630Z,8.90
2023-04-20T18:10:19.529Z,10.20
2023-04-20T18:11:51.251Z,9.50
2023-04-20T18:13:22.940Z,11.40
2023-04-20T18:14:54.893Z,11.00
2023-04-20T18:16:26.781Z,9.60
2023-04-20T18:17:58.700Z,8.40
2023-04-20T18:19:30.669Z,10.80
2023-04-20T18:21:04.083Z,11.80
2023-04-20T18:22:37.260Z,10.50
2023-04-20T18:24:08.994Z,10.80
2023-04-20T18:25:42.599Z,11.30
2023-04-20T18:27:14.340Z,9.90
2023-04-20T18:28:46.906Z,12.10
2023-04-20T18:30:18.674Z,11.70
2023-04-20T18:31:53.303Z,11.70
2023-04-20T18:33:25.176Z,13.50
2023-04-20T18:34:56.957Z,12.20
2023-04-20T18:36:30.110Z,12.40
2023-04-20T18:38:01.820Z,13.40
2023-04-20T18:39:33.516Z,13.80
2023-04-20T18:41:05.359Z,12.90
2023-04-20T18:42:37.230Z,16.20
2023-04-20T18:44:09.064Z,15.60
2023-04-20T18:45:41.282Z,13.10
2023-04-20T18:47:13.081Z,12.90
2023-04-20T18:48:44.977Z,13.50
2023-04-20T18:50:16.724Z,13.00
2023-04-20T18:51:48.554Z,13.00
2023-04-20T18:53:20.347Z,12.30
2023-04-20T18:54:52.714Z,11.40
2023-04-20T18:56:24.517Z,12.90
2023-04-20T18:57:56.315Z,11.90
2023-04-20T18:59:28.087Z,12.00
2023-04-20T19:01:01.905Z,12.40
2023-04-20T19:02:34.881Z,10.90
2023-04-20T19:04:10.587Z,12.60
2023-04-20T19:05:42.620Z,12.30
2023-04-20T19:07:14.367Z,12.20
2023-04-20T19:08:46.117Z,14.10
2023-04-20T19:10:17.977Z,12.50
2023-04-20T19:11:50.843Z,13.20
2023-04-20T19:13:23.749Z,13.20
2023-04-20T19:14:55.725Z,12.50
2023-04-20T19:16:33.823Z,13.70
2023-04-20T19:18:05.766Z,12.10
2023-04-20T19:19:37.545Z,13.70
2023-04-20T19:21:10.822Z,13.10
2023-04-20T19:22:42.617Z,14.20
2023-04-20T19:24:14.503Z,15.10
2023-04-20T19:25:46.370Z,14.20
2023-04-20T19:27:18.291Z,14.60
2023-04-20T19:28:50.071Z,15.50
2023-04-20T19:30:22.235Z,15.60
2023-04-20T19:31:54.139Z,15.10
2023-04-20T19:33:25.964Z,14.50
2023-04-20T19:34:59.635Z,15.30
2023-04-20T19:36:32.202Z,13.70
2023-04-20T19:38:04.057Z,15.50
2023-04-20T19:39:35.900Z,14.10
2023-04-20T19:41:07.724Z,15.60
2023-04-20T19:42:40.611Z,16.40
2023-04-20T19:44:14.352Z,17.10
2023-04-20T19:45:46.112Z,16.70
2023-04-20T19:47:17.991Z,16.90
2023-04-20T19:48:49.810Z,17.90
2023-04-20T19:50:21.572Z,14.90
2023-04-20T19:51:53.346Z,18.00
2023-04-20T19:53:25.989Z,17.40
2023-04-20T19:54:57.813Z,17.80
2023-04-20T19:56:29.693Z,13.50
2023-04-20T19:58:01.612Z,15.90
2023-04-20T19:59:33.444Z,16.00
2023-04-20T20:01:05.726Z,15.20
2023-04-20T20:02:39.644Z,17.70
2023-04-20T20:04:11.752Z,16.50
2023-04-20T20:05:43.881Z,17.10
2023-04-20T20:07:17.752Z,18.00
2023-04-20T20:08:49.904Z,17.50
2023-04-20T20:10:22.157Z,16.60
2023-04-20T20:11:53.847Z,18.20
2023-04-20T20:13:26.342Z,17.80
2023-04-20T20:14:58.277Z,18.10
2023-04-20T20:16:30.415Z,17.80
2023-04-20T20:18:02.237Z,17.00
2023-04-20T20:19:34.189Z,17.80
2023-04-20T20:21:05.958Z,15.30
2023-04-20T20:22:37.912Z,17.20
2023-04-20T20:24:09.718Z,17.60
2023-04-20T20:25:41.583Z,20.70
2023-04-20T20:27:13.657Z,16.90